Stazioni METAR vicine

 

LIRQ - Firenze/Peretola, Italy
Distance from station: S 24km
Dati ricevuti: 01/01/1970 01:00
NOT Current

 
LIVC - Cimone Mountain, Italy
Distance from station: O-NO 43km
Dati ricevuti: 16/11/2018 14:55
NOT Current
Freezing Fog
Freezing Fog
 Vento Da NE
Vento: NE 52 km/h
Temperatura: -4°C
Temperatura Vento: -13°C
P.to Rugiada: -4°C
Umidità: 100%
Barometro: 1021 hPa
Meteo: Freezing Fog
Visibility: 0 km
2018/11/16 13:55 LIVC 161355Z 04028KT 0000 FZFG VV/// M04/M04 Q1021 RMK MON INVIS VAL INVIS VIS MIN 0000
 
LIPE - Bologna/Borgo (a, Italy
Distance from station: N-NE 60km
Dati ricevuti: 19/11/2018 03:20
Poco nuvoloso
Poco nuvoloso
 Vento Da O-NO
Vento: O-NO 7 km/h
Temperatura: 4°C
Temperatura Vento: 2°C
P.to Rugiada: 1°C
Umidità: 81%
Barometro: 1012 hPa
Clouds: Poco nuvoloso
Visibility: 10 km
Cloud details: Poco nuvoloso 1219 m
2018/11/19 02:20 LIPE 190220Z 30004KT 9999 SCT040 04/01 Q1012
LIRP - Pisa (civ/It-Afb, Italy
Distance from station: O-SO 72km
Dati ricevuti: 19/11/2018 03:15
Sereno
Sereno
 Vento Da E
Vento: E 7 km/h
Temperatura: 5°C
Temperatura Vento: 3°C
P.to Rugiada: 2°C
Umidità: 81%
Barometro: 1011 hPa
Meteo: Sereno
Visibility: greater than 10 km
2018/11/19 02:15 LIRP 190215Z 08004KT CAVOK 05/02 Q1011 NOSIG
 
LIPK - Forli (civ/It-Af, Italy
Distance from station: E-NE 78km
Dati ricevuti: 16/11/2018 17:50
NOT Current
Molto nuvoloso
Molto nuvoloso
 Vento Da N
Vento: N 7 km/h
Temperatura: 12°C
P.to Rugiada: 3°C
Umidità: 54%
Barometro: 1025 hPa
Clouds: Molto nuvoloso
Visibility: 10 km
Cloud details: Molto nuvoloso 1219 m
2018/11/16 16:50 LIPK 161650Z 35004KT 9999 BKN040 12/03 Q1025
LIQW - Sarzana/Luni, Italy
Distance from station: O 94km
Dati ricevuti: 16/11/2018 11:55
NOT Current
Sereno
Sereno
 Vento Da S
Vento: S 4 km/h
Temperatura: 16°C
P.to Rugiada: 10°C
Umidità: 68%
Barometro: 1023 hPa
Meteo: Sereno
Visibility: greater than 10 km
2018/11/16 10:55 LIQW 161055Z 18002KT CAVOK 16/10 Q1023
 
LIPC - Cervia (it-Afb), Italy
Distance from station: E-NE 96km
Dati ricevuti: 19/11/2018 02:55
Molto nuvoloso
Molto nuvoloso
 Vento Da O-SO
Vento: O-SO 11 km/h
Temperatura: 4°C
Temperatura Vento: 1°C
P.to Rugiada: 2°C
Umidità: 87%
Barometro: 1012 hPa
Clouds: Molto nuvoloso
Visibility: 10 km
Cloud details: Molto nuvoloso 1219 m
2018/11/19 01:55 LIPC 190155Z 24006KT 9999 BKN040 04/02 Q1012
LIPF - Ferrara (aut), Italy
Distance from station: N-NE 99km
Dati ricevuti: 18/11/2018 18:55
NOT Current
Poco nuvoloso
Poco nuvoloso
 Vento Da varies
Vento: varies 0 km/h
Temperatura: 6°C
P.to Rugiada: 2°C
Umidità: 76%
Barometro: 1017 hPa
Clouds: Poco nuvoloso
Visibility: 10 km
Cloud details: Poco nuvoloso 1219 m
2018/11/18 17:55 LIPF 181755Z /////KT 9999 FEW040 06/02 Q1017